createdAt,value
2022-10-05T00:01:23.102Z,86.51
2022-10-05T00:03:49.806Z,86.45
2022-10-05T00:06:16.398Z,86.47
2022-10-05T00:08:43.057Z,86.61
2022-10-05T00:11:11.427Z,86.70
2022-10-05T00:13:38.042Z,86.75
2022-10-05T00:16:10.736Z,86.98
2022-10-05T00:18:37.649Z,86.42
2022-10-05T00:24:56.127Z,86.79
2022-10-05T00:27:24.780Z,87.11
2022-10-05T00:29:52.249Z,86.89
2022-10-05T00:32:18.879Z,87.62
2022-10-05T00:34:45.593Z,87.37
2022-10-05T00:37:12.215Z,87.41
2022-10-05T00:39:39.049Z,87.15
2022-10-05T00:42:19.315Z,87.09
2022-10-05T00:44:45.782Z,87.70
2022-10-05T00:47:18.248Z,87.28
2022-10-05T00:50:13.918Z,87.00
2022-10-05T00:53:04.822Z,87.18
2022-10-05T00:55:50.086Z,87.02
2022-10-05T00:58:27.321Z,87.21
2022-10-05T01:01:13.187Z,87.04
2022-10-05T01:04:20.565Z,86.73
2022-10-05T01:06:50.106Z,86.70
2022-10-05T01:09:38.838Z,86.62
2022-10-05T01:12:16.700Z,86.16
2022-10-05T01:14:58.554Z,86.02
2022-10-05T01:17:40.303Z,86.63
2022-10-05T01:20:16.892Z,85.72
2022-10-05T01:23:11.357Z,86.18
2022-10-05T01:25:45.210Z,85.87
2022-10-05T01:28:19.943Z,86.07
2022-10-05T01:30:52.183Z,85.35
2022-10-05T01:33:37.997Z,85.26
2022-10-05T01:36:15.285Z,85.50
2022-10-05T01:38:43.807Z,85.22
2022-10-05T01:41:16.681Z,86.30
2022-10-05T01:44:16.168Z,85.97
2022-10-05T01:47:03.714Z,85.64
2022-10-05T01:49:47.107Z,86.10
2022-10-05T01:52:32.314Z,85.70
2022-10-05T01:55:20.247Z,85.95
2022-10-05T01:58:07.006Z,85.54
2022-10-05T02:00:55.861Z,85.64
2022-10-05T02:03:25.435Z,85.87
2022-10-05T02:05:55.582Z,85.47
2022-10-05T02:08:29.541Z,85.61
2022-10-05T02:11:10.180Z,86.12
2022-10-05T02:13:58.560Z,86.19
2022-10-05T02:16:29.715Z,85.58
2022-10-05T02:19:08.398Z,85.88
2022-10-05T02:21:35.023Z,85.35
2022-10-05T02:24:50.496Z,85.59
2022-10-05T02:27:21.579Z,85.80
2022-10-05T02:29:48.422Z,85.07
2022-10-05T02:32:32.688Z,85.25
2022-10-05T02:35:04.330Z,85.25
2022-10-05T02:37:46.358Z,85.07
2022-10-05T02:40:40.412Z,85.26
2022-10-05T02:43:16.454Z,85.14
2022-10-05T02:46:27.482Z,84.83
2022-10-05T02:48:58.280Z,84.89
2022-10-05T02:51:27.734Z,85.05
2022-10-05T02:54:11.055Z,84.99
2022-10-05T02:56:45.257Z,84.62
2022-10-05T02:59:15.977Z,84.92
2022-10-05T03:01:49.275Z,84.94
2022-10-05T03:04:34.322Z,84.89
2022-10-05T03:07:26.629Z,84.88
2022-10-05T03:10:17.475Z,84.57
2022-10-05T03:13:01.426Z,85.01
2022-10-05T03:15:48.925Z,84.37
2022-10-05T03:18:28.617Z,84.94
2022-10-05T03:21:19.978Z,84.94
2022-10-05T03:23:46.602Z,84.76
2022-10-05T03:26:16.113Z,84.82
2022-10-05T03:29:33.583Z,85.13
2022-10-05T03:32:00.920Z,84.51
2022-10-05T03:34:34.217Z,84.93
2022-10-05T03:37:28.626Z,85.40
2022-10-05T03:40:02.198Z,85.10
2022-10-05T03:42:47.009Z,85.56
2022-10-05T03:45:25.617Z,85.76
2022-10-05T03:48:08.761Z,85.87
2022-10-05T03:51:13.171Z,86.31
2022-10-05T03:53:45.976Z,86.29
2022-10-05T03:56:34.512Z,86.26
2022-10-05T03:59:20.612Z,86.15
2022-10-05T04:01:58.234Z,85.93
2022-10-05T04:04:30.986Z,86.06
2022-10-05T04:06:58.161Z,85.96
2022-10-05T04:09:28.662Z,86.12
2022-10-05T04:11:55.598Z,86.60
2022-10-05T04:14:39.270Z,86.20
2022-10-05T04:17:10.719Z,86.68
2022-10-05T04:19:44.361Z,86.35
2022-10-05T04:22:24.196Z,85.83
2022-10-05T04:24:54.205Z,85.90
2022-10-05T04:27:42.456Z,86.28
2022-10-05T04:30:17.647Z,86.17
2022-10-05T04:32:55.975Z,86.39
2022-10-05T04:35:44.361Z,86.41
2022-10-05T04:38:32.688Z,85.89
2022-10-05T04:41:02.214Z,86.25
2022-10-05T04:43:59.308Z,86.14
2022-10-05T04:46:47.789Z,85.57
2022-10-05T04:49:45.120Z,86.31
2022-10-05T04:52:34.839Z,85.89
2022-10-05T04:55:13.547Z,85.92
2022-10-05T04:57:45.978Z,86.35
2022-10-05T05:00:21.862Z,87.55
2022-10-05T05:03:19.595Z,87.23
2022-10-05T05:06:16.028Z,87.46
2022-10-05T05:12:55.229Z,87.19
2022-10-05T05:15:33.886Z,87.54
2022-10-05T05:18:09.381Z,87.13
2022-10-05T05:20:57.043Z,87.67
2022-10-05T05:23:54.659Z,87.52
2022-10-05T05:26:27.422Z,87.14
2022-10-05T05:29:17.588Z,86.95
2022-10-05T05:31:57.954Z,87.26
2022-10-05T05:34:47.335Z,87.08
2022-10-05T05:37:26.511Z,86.91
2022-10-05T05:39:55.935Z,85.61
2022-10-05T05:42:48.671Z,85.39
2022-10-05T05:45:17.826Z,85.40
2022-10-05T05:47:54.439Z,84.96
2022-10-05T05:50:24.388Z,85.44
2022-10-05T05:52:54.229Z,85.01
2022-10-05T05:55:29.718Z,85.46
2022-10-05T05:57:59.545Z,85.49
2022-10-05T06:00:31.941Z,85.99
2022-10-05T06:03:13.826Z,86.27
2022-10-05T06:05:58.377Z,86.29
2022-10-05T06:08:27.281Z,86.86
2022-10-05T06:11:32.113Z,86.58
2022-10-05T06:14:00.968Z,86.99
2022-10-05T06:16:59.859Z,86.99
2022-10-05T06:19:26.577Z,86.82
2022-10-05T06:22:04.255Z,86.96
2022-10-05T06:24:50.783Z,86.88
2022-10-05T06:27:39.630Z,86.59
2022-10-05T06:33:59.826Z,87.22
2022-10-05T06:36:40.863Z,88.37
2022-10-05T06:39:31.738Z,87.70
2022-10-05T06:42:26.429Z,87.27
2022-10-05T06:45:17.264Z,86.79
2022-10-05T06:47:52.953Z,86.92
2022-10-05T06:50:38.349Z,86.50
2022-10-05T06:53:07.782Z,86.26
2022-10-05T06:55:56.383Z,86.72
2022-10-05T06:58:35.067Z,86.88
2022-10-05T07:01:06.384Z,86.74
2022-10-05T07:03:51.196Z,87.29
2022-10-05T07:06:43.479Z,87.78
2022-10-05T07:09:25.254Z,87.35
2022-10-05T07:12:29.557Z,86.80
2022-10-05T07:15:06.297Z,87.10
2022-10-05T07:17:55.957Z,85.98
2022-10-05T07:20:34.507Z,85.45
2022-10-05T07:23:24.646Z,84.11
2022-10-05T07:26:09.736Z,84.35
2022-10-05T07:28:39.369Z,82.60
2022-10-05T07:31:15.166Z,82.50
2022-10-05T07:34:01.956Z,81.38
2022-10-05T07:37:07.180Z,81.16
2022-10-05T07:39:58.970Z,79.06
2022-10-05T07:42:51.545Z,78.24
2022-10-05T07:45:27.984Z,77.15
2022-10-05T07:47:59.551Z,75.61
2022-10-05T09:29:54.642Z,55.92
2022-10-05T09:32:57.899Z,56.13
2022-10-05T09:35:55.318Z,57.06
2022-10-05T09:38:50.353Z,57.60
2022-10-05T09:41:35.697Z,57.36
2022-10-05T09:44:20.925Z,57.15
2022-10-05T09:47:04.227Z,58.09
2022-10-05T09:49:42.847Z,56.55
2022-10-05T09:52:19.054Z,58.53
2022-10-05T09:54:56.949Z,58.66
2022-10-05T09:57:57.646Z,58.67
2022-10-05T10:00:26.967Z,58.36
2022-10-05T10:03:09.966Z,57.49
2022-10-05T10:06:10.632Z,56.69
2022-10-05T10:09:01.852Z,56.08
2022-10-05T10:11:41.725Z,55.02
2022-10-05T10:14:14.450Z,55.75
2022-10-05T10:17:07.087Z,55.50
2022-10-05T10:19:57.118Z,56.26
2022-10-05T10:23:05.116Z,56.17
2022-10-05T10:26:30.684Z,54.91
2022-10-05T10:29:12.159Z,54.57
2022-10-05T10:31:50.605Z,54.56
2022-10-05T10:34:40.110Z,54.01
2022-10-05T10:37:28.391Z,53.23
2022-10-05T10:40:06.868Z,53.44
2022-10-05T10:42:52.201Z,54.16
2022-10-05T10:45:48.196Z,53.57
2022-10-05T10:48:43.641Z,52.40
2022-10-05T10:51:10.143Z,54.08
2022-10-05T10:54:03.659Z,53.51
2022-10-05T10:56:36.168Z,53.09
2022-10-05T10:59:33.799Z,55.01
2022-10-05T11:02:19.278Z,55.12
2022-10-05T11:04:53.769Z,54.62
2022-10-05T11:07:23.387Z,55.36
2022-10-05T11:09:55.954Z,54.33
2022-10-05T11:13:19.495Z,54.45
2022-10-05T11:16:23.017Z,51.73
2022-10-05T11:19:13.663Z,53.14
2022-10-05T11:25:44.407Z,54.02
2022-10-05T11:28:23.923Z,52.76
2022-10-05T11:31:25.411Z,52.37
2022-10-05T11:34:27.438Z,53.71
2022-10-05T11:36:57.013Z,53.73
2022-10-05T11:39:39.437Z,52.24
2022-10-05T11:42:05.960Z,52.86
2022-10-05T11:44:57.749Z,53.31
2022-10-05T11:47:48.487Z,53.79
2022-10-05T11:50:38.543Z,53.37
2022-10-05T11:57:14.303Z,53.96
2022-10-05T12:00:25.438Z,54.14
2022-10-05T12:06:49.032Z,54.07
2022-10-05T12:10:01.668Z,54.12
2022-10-05T12:12:29.583Z,54.21
2022-10-05T12:15:00.357Z,55.82
2022-10-05T12:17:43.567Z,55.39
2022-10-05T12:20:54.453Z,54.18
2022-10-05T12:23:30.463Z,54.30
2022-10-05T12:26:11.170Z,54.76
2022-10-05T12:28:49.767Z,55.21
2022-10-05T12:31:19.514Z,54.33
2022-10-05T12:33:51.425Z,54.84
2022-10-05T12:36:46.195Z,55.81
2022-10-05T12:39:29.883Z,56.22
2022-10-05T12:41:59.387Z,56.84
2022-10-05T12:45:13.748Z,56.13
2022-10-05T12:48:02.457Z,55.29
2022-10-05T12:50:35.583Z,55.96
2022-10-05T12:53:28.815Z,55.25
2022-10-05T12:56:06.187Z,55.42
2022-10-05T12:59:11.251Z,55.41
2022-10-05T13:01:40.920Z,56.62
2022-10-05T13:04:22.274Z,56.43
2022-10-05T13:07:06.185Z,56.74
2022-10-05T13:09:40.611Z,56.57
2022-10-05T13:12:44.803Z,55.84
2022-10-05T13:15:25.302Z,56.55
2022-10-05T13:18:00.781Z,58.07
2022-10-05T13:20:34.229Z,58.50
2022-10-05T13:23:34.846Z,56.76
2022-10-05T13:26:03.180Z,57.78
2022-10-05T13:29:03.521Z,57.49
2022-10-05T13:31:57.011Z,56.62
2022-10-05T13:34:28.872Z,57.36
2022-10-05T13:36:58.383Z,57.19
2022-10-05T13:39:46.897Z,57.86
2022-10-05T13:42:19.679Z,58.19
2022-10-05T13:44:59.123Z,58.00
2022-10-05T13:47:47.703Z,58.06
2022-10-05T13:50:31.186Z,58.14
2022-10-05T13:53:11.467Z,58.84
2022-10-05T13:55:43.480Z,58.51
2022-10-05T13:58:32.874Z,59.13
2022-10-05T14:01:13.207Z,58.02
2022-10-05T14:03:41.263Z,58.88
2022-10-05T14:06:14.201Z,58.95
2022-10-05T14:08:48.857Z,58.59
2022-10-05T14:11:31.677Z,59.12
2022-10-05T14:14:16.353Z,59.04
2022-10-05T14:16:53.936Z,60.08
2022-10-05T14:19:40.818Z,59.99
2022-10-05T14:22:22.451Z,60.20
2022-10-05T14:24:56.987Z,59.10
2022-10-05T14:27:31.003Z,60.39
2022-10-05T14:30:03.205Z,59.91
2022-10-05T14:32:34.541Z,59.88
2022-10-05T14:35:12.968Z,60.53
2022-10-05T14:38:02.394Z,61.27
2022-10-05T14:40:32.992Z,60.96
2022-10-05T14:43:02.261Z,61.33
2022-10-05T14:45:33.450Z,61.41
2022-10-05T14:48:00.293Z,61.28
2022-10-05T14:50:29.832Z,61.67
2022-10-05T14:53:11.640Z,61.60
2022-10-05T14:56:01.998Z,61.89
2022-10-05T14:58:50.320Z,62.07
2022-10-05T15:01:24.203Z,61.61
2022-10-05T15:04:12.639Z,62.26
2022-10-05T15:06:41.623Z,62.27
2022-10-05T15:09:53.794Z,62.22
2022-10-05T15:12:25.013Z,62.10
2022-10-05T15:14:52.034Z,61.60
2022-10-05T15:17:26.222Z,62.07
2022-10-05T15:20:00.144Z,61.55
2022-10-05T15:22:31.860Z,63.06
2022-10-05T15:25:04.057Z,62.63
2022-10-05T15:27:40.603Z,62.95
2022-10-05T15:34:36.273Z,63.51
2022-10-05T15:37:16.857Z,62.79
2022-10-05T15:39:59.978Z,64.25
2022-10-05T15:42:43.159Z,63.33
2022-10-05T15:45:15.849Z,63.68
2022-10-05T15:48:21.657Z,64.13
2022-10-05T15:50:57.988Z,64.23
2022-10-05T15:53:34.486Z,63.94
2022-10-05T15:56:06.582Z,64.20
2022-10-05T15:58:51.381Z,64.70
2022-10-05T16:01:33.321Z,64.81
2022-10-05T16:04:18.317Z,64.96
2022-10-05T16:07:21.795Z,64.91
2022-10-05T16:10:13.808Z,64.58
2022-10-05T16:13:14.367Z,64.89
2022-10-05T16:15:48.647Z,65.23
2022-10-05T16:18:55.046Z,64.88
2022-10-05T16:21:25.036Z,65.35
2022-10-05T16:24:06.448Z,65.10
2022-10-05T16:26:45.677Z,64.85
2022-10-05T16:29:37.701Z,65.55
2022-10-05T16:32:20.383Z,65.02
2022-10-05T16:35:29.264Z,65.54
2022-10-05T16:38:13.828Z,65.50
2022-10-05T16:41:01.973Z,65.74
2022-10-05T16:43:31.931Z,65.82
2022-10-05T16:46:22.234Z,65.88
2022-10-05T16:48:57.482Z,65.56
2022-10-05T16:52:01.192Z,66.00
2022-10-05T16:54:47.515Z,65.98
2022-10-05T16:57:18.265Z,66.55
2022-10-05T16:59:48.422Z,66.64
2022-10-05T17:02:17.959Z,66.05
2022-10-05T17:05:07.417Z,66.28
2022-10-05T17:07:36.894Z,66.32
2022-10-05T17:10:22.234Z,66.29
2022-10-05T17:13:00.839Z,66.56
2022-10-05T17:15:56.001Z,67.06
2022-10-05T17:19:04.480Z,66.57
2022-10-05T17:21:45.449Z,67.09
2022-10-05T17:24:11.938Z,66.90
2022-10-05T17:27:21.251Z,66.79
2022-10-05T17:29:52.568Z,66.69
2022-10-05T17:32:19.117Z,66.77
2022-10-05T17:35:00.712Z,67.35
2022-10-05T17:37:27.179Z,66.61
2022-10-05T17:39:54.964Z,66.76
2022-10-05T17:42:30.477Z,67.02
2022-10-05T17:45:20.335Z,67.41
2022-10-05T17:48:04.195Z,67.36
2022-10-05T17:50:56.822Z,67.09
2022-10-05T17:54:02.398Z,67.50
2022-10-05T17:56:47.619Z,67.81
2022-10-05T18:03:01.618Z,67.36
2022-10-05T18:05:29.043Z,68.07
2022-10-05T18:08:15.710Z,67.81
2022-10-05T18:11:37.316Z,67.85
2022-10-05T18:14:26.777Z,67.95
2022-10-05T18:16:56.377Z,67.62
2022-10-05T18:19:23.314Z,68.40
2022-10-05T18:21:59.781Z,67.99
2022-10-05T18:24:56.212Z,67.45
2022-10-05T18:27:41.447Z,67.80
2022-10-05T18:30:24.005Z,68.09
2022-10-05T18:32:58.258Z,68.18
2022-10-05T18:35:34.184Z,67.67
2022-10-05T18:38:17.836Z,68.00
2022-10-05T18:40:53.416Z,67.77
2022-10-05T18:43:26.785Z,67.77
2022-10-05T18:45:56.465Z,67.93
2022-10-05T18:48:46.072Z,67.40
2022-10-05T18:51:24.509Z,67.22
2022-10-05T18:54:45.274Z,67.42
2022-10-05T18:57:30.322Z,67.07
2022-10-05T19:00:06.894Z,67.64
2022-10-05T19:02:57.839Z,67.40
2022-10-05T19:05:47.453Z,67.67
2022-10-05T19:08:39.194Z,67.51
2022-10-05T19:11:42.161Z,67.64
2022-10-05T19:14:39.251Z,67.91
2022-10-05T19:17:20.525Z,67.95
2022-10-05T19:19:50.059Z,68.23
2022-10-05T19:22:35.302Z,67.96
2022-10-05T19:25:37.562Z,68.30
2022-10-05T19:28:26.184Z,68.33
2022-10-05T19:31:02.189Z,68.79
2022-10-05T19:33:38.051Z,69.01
2022-10-05T19:36:26.566Z,68.60
2022-10-05T19:39:08.111Z,68.97
2022-10-05T19:42:04.417Z,69.19
2022-10-05T19:44:35.405Z,69.00
2022-10-05T19:47:17.524Z,69.45
2022-10-05T19:49:52.993Z,69.55
2022-10-05T19:52:40.170Z,69.44
2022-10-05T19:55:14.105Z,69.42
2022-10-05T19:57:54.179Z,69.34
2022-10-05T20:00:35.395Z,69.38
2022-10-05T20:03:14.475Z,69.56
2022-10-05T20:05:41.225Z,69.55
2022-10-05T20:08:08.049Z,69.07
2022-10-05T20:10:34.783Z,69.24
2022-10-05T20:13:02.721Z,69.22
2022-10-05T20:16:14.067Z,69.63
2022-10-05T20:19:07.012Z,69.51
2022-10-05T20:22:15.995Z,69.70
2022-10-05T20:24:49.953Z,69.50
2022-10-05T20:27:49.045Z,69.97
2022-10-05T20:30:20.329Z,69.71
2022-10-05T20:32:48.168Z,69.67
2022-10-05T20:35:16.478Z,69.64
2022-10-05T20:38:00.957Z,69.80
2022-10-05T20:40:29.230Z,69.59
2022-10-05T20:42:56.662Z,69.67
2022-10-05T20:45:23.344Z,69.32
2022-10-05T20:47:50.799Z,69.52
2022-10-05T20:50:17.615Z,69.47
2022-10-05T20:52:44.264Z,69.91
2022-10-05T20:55:11.127Z,69.84
2022-10-05T20:57:45.410Z,70.06
2022-10-05T21:00:12.419Z,70.18
2022-10-05T21:02:39.660Z,69.97
2022-10-05T21:05:07.714Z,70.49
2022-10-05T21:07:34.570Z,70.16
2022-10-05T21:10:02.585Z,70.21
2022-10-05T21:12:29.230Z,69.63
2022-10-05T21:14:55.876Z,70.02
2022-10-05T21:17:22.485Z,69.80
2022-10-05T21:19:49.195Z,69.75
2022-10-05T21:22:15.819Z,69.30
2022-10-05T21:24:42.461Z,69.27
2022-10-05T21:27:09.682Z,69.50
2022-10-05T21:29:37.121Z,69.38
2022-10-05T21:32:08.421Z,69.37
2022-10-05T21:34:35.276Z,69.44
2022-10-05T21:37:01.859Z,69.41
2022-10-05T21:39:28.529Z,69.74
2022-10-05T21:41:55.163Z,69.43
2022-10-05T21:44:21.879Z,69.55
2022-10-05T21:46:48.471Z,69.87
2022-10-05T21:49:17.611Z,69.40
2022-10-05T21:51:46.377Z,69.73
2022-10-05T21:54:15.013Z,69.93
2022-10-05T21:56:43.570Z,69.74
2022-10-05T21:59:11.192Z,69.92
2022-10-05T22:01:37.946Z,69.81
2022-10-05T22:04:05.074Z,69.97
2022-10-05T22:06:31.933Z,69.63
2022-10-05T22:08:59.651Z,69.92
2022-10-05T22:11:26.390Z,70.39
2022-10-05T22:13:53.251Z,70.12
2022-10-05T22:16:21.813Z,69.82
2022-10-05T22:18:48.758Z,70.22
2022-10-05T22:21:15.564Z,70.30
2022-10-05T22:23:43.094Z,70.08
2022-10-05T22:26:11.273Z,70.09
2022-10-05T22:28:38.237Z,69.74
2022-10-05T22:31:05.457Z,70.28
2022-10-05T22:33:32.127Z,70.56
2022-10-05T22:35:59.018Z,70.18
2022-10-05T22:38:26.339Z,70.50
2022-10-05T22:40:53.263Z,70.39
2022-10-05T22:43:19.878Z,70.27
2022-10-05T22:45:46.500Z,70.63
2022-10-05T22:48:13.528Z,70.72
2022-10-05T22:50:40.290Z,70.71
2022-10-05T22:53:06.940Z,70.87
2022-10-05T22:55:44.820Z,71.09
2022-10-05T22:58:11.510Z,71.38
2022-10-05T23:00:57.460Z,71.11
2022-10-05T23:03:24.805Z,71.25
2022-10-05T23:06:03.588Z,71.06
2022-10-05T23:08:33.720Z,71.00
2022-10-05T23:11:02.344Z,71.28
2022-10-05T23:13:29.236Z,71.13
2022-10-05T23:15:56.303Z,71.32
2022-10-05T23:18:22.931Z,71.33
2022-10-05T23:20:54.280Z,71.71
2022-10-05T23:23:21.427Z,71.62
2022-10-05T23:25:48.005Z,71.58
2022-10-05T23:28:14.736Z,71.79
2022-10-05T23:30:41.983Z,71.87
2022-10-05T23:33:08.558Z,71.70
2022-10-05T23:35:35.124Z,71.75
2022-10-05T23:38:01.776Z,71.82
2022-10-05T23:40:28.355Z,71.97
2022-10-05T23:42:55.017Z,71.48
2022-10-05T23:45:21.753Z,71.87
2022-10-05T23:47:48.343Z,71.76
2022-10-05T23:50:15.167Z,71.95
2022-10-05T23:52:41.805Z,71.83
2022-10-05T23:55:08.779Z,71.94
2022-10-05T23:57:35.391Z,71.72
